createdAt,value
2017-09-09T00:01:02.655Z,3.92
2017-09-09T00:03:30.901Z,3.55
2017-09-09T00:05:58.375Z,5.10
2017-09-09T00:08:25.871Z,4.55
2017-09-09T00:10:53.356Z,3.95
2017-09-09T00:13:20.848Z,4.32
2017-09-09T00:15:48.336Z,4.45
2017-09-09T00:18:15.824Z,4.15
2017-09-09T00:20:43.299Z,4.18
2017-09-09T00:23:10.787Z,4.57
2017-09-09T00:25:39.018Z,4.20
2017-09-09T00:28:06.503Z,4.47
2017-09-09T00:30:33.983Z,4.03
2017-09-09T00:33:01.466Z,4.30
2017-09-09T00:35:28.942Z,4.43
2017-09-09T00:37:56.431Z,2.80
2017-09-09T00:40:23.894Z,2.47
2017-09-09T00:42:51.404Z,2.70
2017-09-09T00:45:18.883Z,2.50
2017-09-09T00:47:46.361Z,2.42
2017-09-09T00:50:13.850Z,1.73
2017-09-09T00:52:41.327Z,1.80
2017-09-09T00:55:08.815Z,1.87
2017-09-09T00:57:36.295Z,2.20
2017-09-09T01:00:03.785Z,1.75
2017-09-09T01:02:31.259Z,1.60
2017-09-09T01:04:58.764Z,2.30
2017-09-09T01:07:26.247Z,1.80
2017-09-09T01:09:53.736Z,1.85
2017-09-09T01:12:21.215Z,2.25
2017-09-09T01:14:48.699Z,2.22
2017-09-09T01:17:16.180Z,2.30
2017-09-09T01:19:43.705Z,2.25
2017-09-09T01:22:11.166Z,2.75
2017-09-09T01:24:38.643Z,2.42
2017-09-09T01:27:07.276Z,3.08
2017-09-09T01:29:34.751Z,2.80
2017-09-09T01:32:02.249Z,2.50
2017-09-09T01:34:29.723Z,2.80
2017-09-09T01:36:57.230Z,3.22
2017-09-09T01:39:24.711Z,5.93
2017-09-09T01:41:52.212Z,3.70
2017-09-09T01:44:19.697Z,3.75
2017-09-09T01:46:47.223Z,4.50
2017-09-09T01:49:14.706Z,4.50
2017-09-09T01:51:42.233Z,4.50
2017-09-09T01:54:09.728Z,5.35
2017-09-09T01:56:37.236Z,6.15
2017-09-09T01:59:04.723Z,8.00
2017-09-09T02:01:32.222Z,6.18
2017-09-09T02:03:59.698Z,6.82
2017-09-09T02:06:27.212Z,6.12
2017-09-09T02:08:54.699Z,9.73
2017-09-09T02:11:22.171Z,6.93
2017-09-09T02:13:49.664Z,7.85
2017-09-09T02:16:17.139Z,8.13
2017-09-09T02:18:44.657Z,7.60
2017-09-09T02:21:12.144Z,8.15
2017-09-09T02:23:39.647Z,8.25
2017-09-09T02:26:07.137Z,9.27
2017-09-09T02:28:34.948Z,9.43
2017-09-09T02:31:02.436Z,9.75
2017-09-09T02:33:29.945Z,11.32
2017-09-09T02:35:57.454Z,12.80
2017-09-09T02:38:24.961Z,13.13
2017-09-09T02:40:52.456Z,12.23
2017-09-09T02:43:20.724Z,12.85
2017-09-09T02:45:48.987Z,13.45
2017-09-09T02:48:16.522Z,15.52
2017-09-09T02:50:44.025Z,14.60
2017-09-09T02:53:11.559Z,15.80
2017-09-09T02:55:39.064Z,14.05
2017-09-09T02:58:06.551Z,14.87
2017-09-09T03:00:34.042Z,16.25
2017-09-09T03:03:01.530Z,15.68
2017-09-09T03:05:29.031Z,16.30
2017-09-09T03:07:56.523Z,15.00
2017-09-09T03:10:24.803Z,16.42
2017-09-09T03:12:53.060Z,15.63
2017-09-09T03:15:20.555Z,16.80
2017-09-09T03:17:48.067Z,15.88
2017-09-09T03:20:15.575Z,15.48
2017-09-09T03:22:43.114Z,17.70
2017-09-09T03:25:10.659Z,16.98
2017-09-09T03:27:38.145Z,17.37
2017-09-09T03:30:05.675Z,18.30
2017-09-09T03:32:33.157Z,17.05
2017-09-09T03:35:00.651Z,15.85
2017-09-09T03:37:28.143Z,18.80
2017-09-09T03:39:55.699Z,15.75
2017-09-09T03:42:23.191Z,16.75
2017-09-09T03:44:50.682Z,18.42
2017-09-09T03:47:18.196Z,17.33
2017-09-09T03:49:45.700Z,19.10
2017-09-09T03:52:13.212Z,16.75
2017-09-09T03:54:40.728Z,19.15
2017-09-09T03:57:08.231Z,18.58
2017-09-09T03:59:35.735Z,19.10
2017-09-09T04:02:03.265Z,16.77
2017-09-09T04:04:30.752Z,18.50
2017-09-09T04:06:58.259Z,19.30
2017-09-09T04:09:26.571Z,18.33
2017-09-09T04:11:54.073Z,20.23
2017-09-09T04:14:21.580Z,19.33
2017-09-09T04:16:49.088Z,18.05
2017-09-09T04:19:16.582Z,18.67
2017-09-09T04:21:44.104Z,17.67
2017-09-09T04:24:11.594Z,17.90
2017-09-09T04:26:39.094Z,17.02
2017-09-09T04:29:06.625Z,16.35
2017-09-09T04:31:34.127Z,19.75
2017-09-09T04:34:01.926Z,18.05
2017-09-09T04:36:29.463Z,17.55
2017-09-09T04:38:56.965Z,17.08
2017-09-09T04:41:24.487Z,17.30
2017-09-09T04:43:52.028Z,17.23
2017-09-09T04:46:19.832Z,17.98
2017-09-09T04:48:47.356Z,16.40
2017-09-09T04:51:14.856Z,16.92
2017-09-09T04:53:42.375Z,15.88
2017-09-09T04:56:09.892Z,16.62
2017-09-09T04:58:37.481Z,15.82
2017-09-09T05:01:05.004Z,15.63
2017-09-09T05:03:32.532Z,17.87
2017-09-09T05:06:00.054Z,14.23
2017-09-09T05:08:27.580Z,14.05
2017-09-09T05:10:55.107Z,14.73
2017-09-09T05:13:22.612Z,15.13
2017-09-09T05:15:50.132Z,15.07
2017-09-09T05:18:17.672Z,15.52
2017-09-09T05:20:45.980Z,15.07
2017-09-09T05:23:13.496Z,12.63
2017-09-09T05:25:41.031Z,13.77
2017-09-09T05:28:08.676Z,14.60
2017-09-09T05:30:36.203Z,13.48
2017-09-09T05:33:03.700Z,10.95
2017-09-09T05:35:31.216Z,13.48
2017-09-09T05:37:58.720Z,12.32
2017-09-09T05:40:26.262Z,11.55
2017-09-09T05:42:54.591Z,12.05
2017-09-09T05:45:22.881Z,11.88
2017-09-09T05:47:50.389Z,13.77
2017-09-09T05:50:17.923Z,10.98
2017-09-09T05:52:45.411Z,11.80
2017-09-09T05:55:12.913Z,12.10
2017-09-09T05:57:42.149Z,12.07
2017-09-09T06:00:09.666Z,11.32
2017-09-09T06:02:37.201Z,10.60
2017-09-09T06:05:04.757Z,11.45
2017-09-09T06:07:32.341Z,10.10
2017-09-09T06:09:59.850Z,11.43
2017-09-09T06:12:27.359Z,11.80
2017-09-09T06:14:54.872Z,9.75
2017-09-09T06:17:23.069Z,9.05
2017-09-09T06:19:50.565Z,10.18
2017-09-09T06:22:18.064Z,10.00
2017-09-09T06:24:45.568Z,9.93
2017-09-09T06:27:15.187Z,9.30
2017-09-09T06:29:42.699Z,9.68
2017-09-09T06:32:10.216Z,8.90
2017-09-09T06:34:37.727Z,10.70
2017-09-09T06:37:05.223Z,8.27
2017-09-09T06:39:32.711Z,10.25
2017-09-09T06:42:00.223Z,9.07
2017-09-09T06:44:27.704Z,9.23
2017-09-09T06:46:55.187Z,8.98
2017-09-09T06:49:22.699Z,9.73
2017-09-09T06:51:50.196Z,10.25
2017-09-09T06:54:17.698Z,9.55
2017-09-09T06:56:45.177Z,9.55
2017-09-09T06:59:12.698Z,8.68
2017-09-09T07:01:40.188Z,8.32
2017-09-09T07:04:07.723Z,8.50
2017-09-09T07:06:35.204Z,9.45
2017-09-09T07:09:02.700Z,9.15
2017-09-09T07:11:30.183Z,8.45
2017-09-09T07:13:57.719Z,8.65
2017-09-09T07:16:25.197Z,8.20
2017-09-09T07:18:52.776Z,7.18
2017-09-09T07:21:21.039Z,7.37
2017-09-09T07:23:48.536Z,7.00
2017-09-09T07:26:16.072Z,7.80
2017-09-09T07:28:43.635Z,7.35
2017-09-09T07:31:11.145Z,7.82
2017-09-09T07:33:38.721Z,6.37
2017-09-09T07:36:06.295Z,7.47
2017-09-09T07:38:33.782Z,7.28
2017-09-09T07:41:01.300Z,7.70
2017-09-09T07:43:28.791Z,8.88
2017-09-09T07:45:56.319Z,6.53
2017-09-09T07:48:23.820Z,5.97
2017-09-09T07:50:51.315Z,5.60
2017-09-09T07:53:18.824Z,8.48
2017-09-09T07:55:46.318Z,6.90
2017-09-09T07:58:13.807Z,7.55
2017-09-09T08:00:41.309Z,6.28
2017-09-09T08:03:08.878Z,6.15
2017-09-09T08:05:37.344Z,5.68
2017-09-09T08:08:04.949Z,7.93
2017-09-09T08:10:32.471Z,5.93
2017-09-09T08:12:59.987Z,6.40
2017-09-09T08:15:27.546Z,6.75
2017-09-09T08:17:55.140Z,6.85
2017-09-09T08:20:22.655Z,7.35
2017-09-09T08:22:50.160Z,5.68
2017-09-09T08:25:17.661Z,6.10
2017-09-09T08:27:45.175Z,6.28
2017-09-09T08:30:12.691Z,5.62
2017-09-09T08:32:40.223Z,6.20
2017-09-09T08:35:07.749Z,5.43
2017-09-09T08:37:35.343Z,7.28
2017-09-09T08:40:02.854Z,5.87
2017-09-09T08:42:30.371Z,6.62
2017-09-09T08:44:57.956Z,7.22
2017-09-09T08:47:26.317Z,6.43
2017-09-09T08:49:53.837Z,7.65
2017-09-09T08:52:21.375Z,6.90
2017-09-09T08:54:48.895Z,7.30
2017-09-09T08:57:16.396Z,6.40
2017-09-09T08:59:43.879Z,7.22
2017-09-09T09:02:11.370Z,6.82
2017-09-09T09:04:38.882Z,7.00
2017-09-09T09:07:06.395Z,8.07
2017-09-09T09:09:33.920Z,9.07
2017-09-09T09:12:01.435Z,12.77
2017-09-09T09:14:28.992Z,6.87
2017-09-09T09:16:56.529Z,7.35
2017-09-09T09:19:24.062Z,7.55
2017-09-09T09:21:51.561Z,7.45
2017-09-09T09:24:19.132Z,7.12
2017-09-09T09:26:46.696Z,7.32
2017-09-09T09:29:14.235Z,7.47
2017-09-09T09:31:41.776Z,7.40
2017-09-09T09:34:09.280Z,8.00
2017-09-09T09:36:36.793Z,7.30
2017-09-09T09:39:04.329Z,8.68
2017-09-09T09:41:31.836Z,9.05
2017-09-09T09:43:59.379Z,7.30
2017-09-09T09:46:27.010Z,7.40
2017-09-09T09:48:54.543Z,9.65
2017-09-09T09:51:22.060Z,8.55
2017-09-09T09:53:49.574Z,7.68
2017-09-09T09:56:17.091Z,7.80
2017-09-09T09:58:45.363Z,8.70
2017-09-09T10:01:12.868Z,7.75
2017-09-09T10:03:40.380Z,10.57
2017-09-09T10:06:07.921Z,7.18
2017-09-09T10:08:35.434Z,7.75
2017-09-09T10:11:02.952Z,6.28
2017-09-09T10:13:30.551Z,7.35
2017-09-09T10:15:58.091Z,6.50
2017-09-09T10:18:25.576Z,5.03
2017-09-09T10:20:53.092Z,7.60
2017-09-09T10:23:20.599Z,6.35
2017-09-09T10:25:49.930Z,7.60
2017-09-09T10:28:22.741Z,5.50
2017-09-09T10:30:50.289Z,5.20
2017-09-09T10:33:17.788Z,5.25
2017-09-09T10:35:45.343Z,6.25
2017-09-09T10:38:12.831Z,4.82
2017-09-09T10:40:40.312Z,6.03
2017-09-09T10:43:07.816Z,4.60
2017-09-09T10:45:35.307Z,5.25
2017-09-09T10:48:02.808Z,5.50
2017-09-09T10:50:30.291Z,4.37
2017-09-09T10:52:57.799Z,5.28
2017-09-09T10:55:25.314Z,5.25
2017-09-09T10:57:52.820Z,4.82
2017-09-09T11:00:21.180Z,4.20
2017-09-09T11:02:48.672Z,4.68
2017-09-09T11:05:16.165Z,4.55
2017-09-09T11:07:43.668Z,4.12
2017-09-09T11:10:11.144Z,5.53
2017-09-09T11:12:39.824Z,5.05
2017-09-09T11:15:07.313Z,4.22
2017-09-09T11:17:34.831Z,5.80
2017-09-09T11:20:02.313Z,4.50
2017-09-09T11:22:29.811Z,4.65
2017-09-09T11:24:57.312Z,4.78
2017-09-09T11:27:24.791Z,4.05
2017-09-09T11:29:52.301Z,4.40
2017-09-09T11:32:19.783Z,4.95
2017-09-09T11:34:47.275Z,5.00
2017-09-09T11:37:14.768Z,4.97
2017-09-09T11:39:42.276Z,4.40
2017-09-09T11:42:09.759Z,4.40
2017-09-09T11:44:37.264Z,4.43
2017-09-09T11:47:05.531Z,5.03
2017-09-09T11:49:33.805Z,4.70
2017-09-09T11:52:02.056Z,6.45
2017-09-09T11:54:29.549Z,5.22
2017-09-09T11:56:57.794Z,5.15
2017-09-09T11:59:25.303Z,4.40
2017-09-09T12:01:52.802Z,3.90
2017-09-09T12:04:20.306Z,4.65
2017-09-09T12:06:47.791Z,6.10
2017-09-09T12:09:15.328Z,5.30
2017-09-09T12:11:42.827Z,3.95
2017-09-09T12:14:10.332Z,3.87
2017-09-09T12:16:37.836Z,4.18
2017-09-09T12:19:05.343Z,5.03
2017-09-09T12:21:33.628Z,4.22
2017-09-09T12:24:01.115Z,4.10
2017-09-09T12:26:28.623Z,4.85
2017-09-09T12:28:56.890Z,4.20
2017-09-09T12:31:24.396Z,3.95
2017-09-09T12:33:51.970Z,4.65
2017-09-09T12:36:19.467Z,3.95
2017-09-09T12:38:46.965Z,3.55
2017-09-09T12:41:14.455Z,4.47
2017-09-09T12:43:41.946Z,3.92
2017-09-09T12:46:10.245Z,5.07
2017-09-09T12:48:37.728Z,4.17
2017-09-09T12:51:05.225Z,4.80
2017-09-09T12:53:32.718Z,4.37
2017-09-09T12:56:00.237Z,4.78
2017-09-09T12:58:27.740Z,4.60
2017-09-09T13:00:55.224Z,4.93
2017-09-09T13:03:22.733Z,4.80
2017-09-09T13:05:51.000Z,4.67
2017-09-09T13:08:18.509Z,4.50
2017-09-09T13:10:46.057Z,4.87
2017-09-09T13:13:14.658Z,4.10
2017-09-09T13:15:42.156Z,4.80
2017-09-09T13:18:09.672Z,7.43
2017-09-09T13:20:37.181Z,4.63
2017-09-09T13:23:04.793Z,4.47
2017-09-09T13:25:32.327Z,4.97
2017-09-09T13:27:59.852Z,4.37
2017-09-09T13:30:27.487Z,4.50
2017-09-09T13:32:55.044Z,4.60
2017-09-09T13:35:22.654Z,5.03
2017-09-09T13:37:50.167Z,4.43
2017-09-09T13:40:17.671Z,4.23
2017-09-09T13:42:45.196Z,4.40
2017-09-09T13:45:12.884Z,4.73
2017-09-09T13:47:41.240Z,4.97
2017-09-09T13:50:08.780Z,3.67
2017-09-09T13:52:36.300Z,4.00
2017-09-09T13:55:03.886Z,4.67
2017-09-09T13:57:31.452Z,5.07
2017-09-09T13:59:58.956Z,4.47
2017-09-09T14:02:26.489Z,4.77
2017-09-09T14:04:54.080Z,5.10
2017-09-09T14:07:21.621Z,5.30
2017-09-09T14:09:49.125Z,5.03
2017-09-09T14:12:16.641Z,4.70
2017-09-09T14:14:44.391Z,5.00
2017-09-09T14:17:11.908Z,5.90
2017-09-09T14:19:39.431Z,5.78
2017-09-09T14:22:06.985Z,5.80
2017-09-09T14:24:35.260Z,6.07
2017-09-09T14:27:03.524Z,5.55
2017-09-09T14:29:31.050Z,6.05
2017-09-09T14:31:58.588Z,7.12
2017-09-09T14:34:26.135Z,8.18
2017-09-09T14:36:53.678Z,7.22
2017-09-09T14:39:21.192Z,7.72
2017-09-09T14:41:48.708Z,8.10
2017-09-09T14:44:16.207Z,7.00
2017-09-09T14:46:43.710Z,6.53
2017-09-09T14:49:11.263Z,8.30
2017-09-09T14:51:39.564Z,7.90
2017-09-09T14:54:07.221Z,6.87
2017-09-09T14:56:34.728Z,6.60
2017-09-09T14:59:02.236Z,7.73
2017-09-09T15:01:29.752Z,7.50
2017-09-09T15:03:57.287Z,5.82
2017-09-09T15:06:24.815Z,6.82
2017-09-09T15:08:52.370Z,6.43
2017-09-09T15:11:19.880Z,6.20
2017-09-09T15:13:47.372Z,6.07
2017-09-09T15:16:14.929Z,7.68
2017-09-09T15:18:42.450Z,6.80
2017-09-09T15:21:09.981Z,6.30
2017-09-09T15:23:37.506Z,6.60
2017-09-09T15:26:05.016Z,5.37
2017-09-09T15:28:32.542Z,5.25
2017-09-09T15:31:00.066Z,4.70
2017-09-09T15:33:27.589Z,3.45
2017-09-09T15:35:55.114Z,4.37
2017-09-09T15:38:22.666Z,3.28
2017-09-09T15:40:50.210Z,2.90
2017-09-09T15:43:17.760Z,3.53
2017-09-09T15:45:46.096Z,2.70
2017-09-09T15:48:13.600Z,3.28
2017-09-09T15:50:41.900Z,2.67
2017-09-09T15:53:09.391Z,2.83
2017-09-09T15:55:36.904Z,3.08
2017-09-09T15:58:05.215Z,2.75
2017-09-09T16:00:32.735Z,3.00
2017-09-09T16:03:00.272Z,3.15
2017-09-09T16:05:27.782Z,3.00
2017-09-09T16:07:55.323Z,3.10
2017-09-09T16:10:22.851Z,2.75
2017-09-09T16:12:50.364Z,3.10
2017-09-09T16:15:17.921Z,3.00
2017-09-09T16:17:45.977Z,3.65
2017-09-09T16:20:13.479Z,2.55
2017-09-09T16:22:41.005Z,3.00
2017-09-09T16:25:08.514Z,2.90
2017-09-09T16:27:36.047Z,3.03
2017-09-09T16:30:03.641Z,2.90
2017-09-09T16:32:31.167Z,3.25
2017-09-09T16:34:58.696Z,3.45
2017-09-09T16:37:26.234Z,3.03
2017-09-09T16:39:53.764Z,3.62
2017-09-09T16:42:21.258Z,2.80
2017-09-09T16:44:48.783Z,3.22
2017-09-09T16:47:16.280Z,3.20
2017-09-09T16:49:43.803Z,3.37
2017-09-09T16:52:11.360Z,3.45
2017-09-09T16:54:38.871Z,3.80
2017-09-09T16:57:06.389Z,3.30
2017-09-09T16:59:33.934Z,3.55
2017-09-09T17:02:01.477Z,3.28
2017-09-09T17:04:29.026Z,3.30
2017-09-09T17:06:56.614Z,3.40
2017-09-09T17:09:24.139Z,2.65
2017-09-09T17:11:51.672Z,2.90
2017-09-09T17:14:19.226Z,3.60
2017-09-09T17:16:46.900Z,3.53
2017-09-09T17:19:14.407Z,3.28
2017-09-09T17:21:41.944Z,2.90
2017-09-09T17:24:09.451Z,3.05
2017-09-09T17:26:36.972Z,3.70
2017-09-09T17:29:04.524Z,3.20
2017-09-09T17:31:32.047Z,4.00
2017-09-09T17:33:59.553Z,4.18
2017-09-09T17:36:27.082Z,4.10
2017-09-09T17:38:54.612Z,3.50
2017-09-09T17:41:22.189Z,3.42
2017-09-09T17:43:49.709Z,3.87
2017-09-09T17:46:18.017Z,4.55
2017-09-09T17:48:45.509Z,4.72
2017-09-09T17:51:13.925Z,4.40
2017-09-09T17:53:41.484Z,4.05
2017-09-09T17:56:09.577Z,4.37
2017-09-09T17:58:37.183Z,4.43
2017-09-09T18:01:04.777Z,4.43
2017-09-09T18:03:32.426Z,4.32
2017-09-09T18:06:00.137Z,3.90
2017-09-09T18:08:27.753Z,5.10
2017-09-09T18:10:55.401Z,4.68
2017-09-09T18:13:23.090Z,4.32
2017-09-09T18:15:50.766Z,4.22
2017-09-09T18:18:18.794Z,4.35
2017-09-09T18:20:46.451Z,4.30
2017-09-09T18:23:14.024Z,4.25
2017-09-09T18:25:41.671Z,3.78
2017-09-09T18:28:09.246Z,4.72
2017-09-09T18:30:37.049Z,5.00
2017-09-09T18:33:04.667Z,4.22
2017-09-09T18:35:32.252Z,4.53
2017-09-09T18:37:59.993Z,4.07
2017-09-09T18:40:27.873Z,4.50
2017-09-09T18:42:55.510Z,4.28
2017-09-09T18:45:23.094Z,5.80
2017-09-09T18:47:50.717Z,5.80
2017-09-09T18:50:18.516Z,22.98
2017-09-09T18:52:46.683Z,19.87
2017-09-09T18:55:14.323Z,26.52
2017-09-09T18:57:42.081Z,34.30
2017-09-09T19:00:10.179Z,26.48
2017-09-09T19:02:38.167Z,19.15
2017-09-09T19:05:05.797Z,23.17
2017-09-09T19:07:33.568Z,16.37
2017-09-09T19:10:01.322Z,15.18
2017-09-09T19:12:29.221Z,14.05
2017-09-09T19:14:57.158Z,12.43
2017-09-09T19:17:25.354Z,12.18
2017-09-09T19:19:52.954Z,10.98
2017-09-09T19:22:21.400Z,9.98
2017-09-09T19:24:49.253Z,10.68
2017-09-09T19:27:17.032Z,10.35
2017-09-09T19:29:44.647Z,9.60
2017-09-09T19:32:12.494Z,10.68
2017-09-09T19:34:40.467Z,8.90
2017-09-09T19:37:08.045Z,9.45
2017-09-09T19:39:35.561Z,10.38
2017-09-09T19:42:03.201Z,9.23
2017-09-09T19:44:30.808Z,9.20
2017-09-09T19:46:58.356Z,7.90
2017-09-09T19:49:25.894Z,8.90
2017-09-09T19:51:53.452Z,9.38
2017-09-09T19:54:21.113Z,10.00
2017-09-09T19:56:49.482Z,8.93
2017-09-09T19:59:17.019Z,12.10
2017-09-09T20:01:45.529Z,8.73
2017-09-09T20:04:13.033Z,9.95
2017-09-09T20:06:40.535Z,9.68
2017-09-09T20:09:08.081Z,10.07
2017-09-09T20:11:35.891Z,9.85
2017-09-09T20:14:03.388Z,9.88
2017-09-09T20:16:30.890Z,9.15
2017-09-09T20:18:58.411Z,10.38
2017-09-09T20:21:25.948Z,10.27
2017-09-09T20:23:53.495Z,10.65
2017-09-09T20:26:21.044Z,10.05
2017-09-09T20:28:48.614Z,10.70
2017-09-09T20:31:16.132Z,11.30
2017-09-09T20:33:44.419Z,11.68
2017-09-09T20:36:12.025Z,11.18
2017-09-09T20:38:40.442Z,11.60
2017-09-09T20:41:07.988Z,10.45
2017-09-09T20:43:35.538Z,10.88
2017-09-09T20:46:03.064Z,10.55
2017-09-09T20:48:30.595Z,11.35
2017-09-09T20:50:58.276Z,9.10
2017-09-09T20:53:25.793Z,8.95
2017-09-09T20:55:54.060Z,9.10
2017-09-09T20:58:21.621Z,9.75
2017-09-09T21:00:49.114Z,10.95
2017-09-09T21:03:16.785Z,10.75
2017-09-09T21:05:44.295Z,9.32
2017-09-09T21:08:11.780Z,9.75
2017-09-09T21:10:39.325Z,8.30
2017-09-09T21:13:07.603Z,9.23
2017-09-09T21:15:35.126Z,8.15
2017-09-09T21:18:02.643Z,7.65
2017-09-09T21:20:30.126Z,7.53
2017-09-09T21:22:57.643Z,9.00
2017-09-09T21:25:25.176Z,7.85
2017-09-09T21:27:52.762Z,7.82
2017-09-09T21:30:20.361Z,7.95
2017-09-09T21:32:47.847Z,8.40
2017-09-09T21:35:15.372Z,9.07
2017-09-09T21:37:42.863Z,8.80
2017-09-09T21:40:10.360Z,9.70
2017-09-09T21:42:37.850Z,10.18
2017-09-09T21:45:05.404Z,10.75
2017-09-09T21:47:32.906Z,11.00
2017-09-09T21:50:01.204Z,12.05
2017-09-09T21:52:28.701Z,14.15
2017-09-09T21:54:56.251Z,14.00
2017-09-09T21:57:23.894Z,15.70
2017-09-09T21:59:51.531Z,14.40
2017-09-09T22:02:19.051Z,15.23
2017-09-09T22:04:46.555Z,12.60
2017-09-09T22:07:14.273Z,11.63
2017-09-09T22:09:41.767Z,12.65
2017-09-09T22:12:09.303Z,11.93
2017-09-09T22:14:36.802Z,12.02
2017-09-09T22:17:04.478Z,12.20
2017-09-09T22:19:32.038Z,11.95
2017-09-09T22:21:59.556Z,12.10
2017-09-09T22:24:27.070Z,12.27
2017-09-09T22:26:54.616Z,11.40
2017-09-09T22:29:22.111Z,12.25
2017-09-09T22:31:49.620Z,15.15
2017-09-09T22:34:17.959Z,12.65
2017-09-09T22:36:45.479Z,13.10
2017-09-09T22:39:12.968Z,14.73
2017-09-09T22:41:40.508Z,13.88
2017-09-09T22:44:08.116Z,14.85
2017-09-09T22:46:35.630Z,13.60
2017-09-09T22:49:03.135Z,13.27
2017-09-09T22:51:30.657Z,13.30
2017-09-09T22:53:58.155Z,13.02
2017-09-09T22:56:25.714Z,14.63
2017-09-09T22:58:53.233Z,14.90
2017-09-09T23:01:20.923Z,14.02
2017-09-09T23:03:49.192Z,13.30
2017-09-09T23:06:17.478Z,13.73
2017-09-09T23:08:44.976Z,13.98
2017-09-09T23:11:12.488Z,12.48
2017-09-09T23:13:40.770Z,13.40
2017-09-09T23:16:08.296Z,12.70
2017-09-09T23:18:35.798Z,13.27
2017-09-09T23:21:03.321Z,13.35
2017-09-09T23:23:30.860Z,13.57
2017-09-09T23:25:58.348Z,13.05
2017-09-09T23:28:26.648Z,17.23
2017-09-09T23:30:54.148Z,15.85
2017-09-09T23:33:21.661Z,13.65
2017-09-09T23:35:49.133Z,14.45
2017-09-09T23:38:16.611Z,13.73
2017-09-09T23:40:44.110Z,11.82
2017-09-09T23:43:12.408Z,13.82
2017-09-09T23:45:39.898Z,13.05
2017-09-09T23:48:07.393Z,12.13
2017-09-09T23:50:34.945Z,11.88
2017-09-09T23:53:02.452Z,11.65
2017-09-09T23:55:29.950Z,12.50
2017-09-09T23:57:57.450Z,12.63
